Time;durP1;ratioP1;P1;durP2;ratioP2;P2;SDS_P1;SDS_P2;PMS_P1;PMS_P2;Temp;Humidity;BMP_temperature;BMP_pressure;BME280_temperature;BME280_humidity;BME280_pressure;Samples;Min_cycle;Max_cycle;Signal;HPM_P1;HPM_P2
2022/01/08 00:00:33;;;;;;;7.85;2.60;;;;;;;18.41;43.93;100938.44;5035349;28;20022;-63
2022/01/08 00:02:58;;;;;;;6.47;2.67;;;;;;;18.37;44.00;100940.47;5034848;28;20371;-64
2022/01/08 00:05:24;;;;;;;5.38;2.10;;;;;;;18.33;44.33;100941.69;5035634;28;20128;-64
2022/01/08 00:07:50;;;;;;;6.13;2.22;;;;;;;18.33;44.29;100940.88;5035121;28;20021;-63
2022/01/08 00:10:15;;;;;;;6.13;2.25;;;;;;;18.29;43.93;100942.88;5034578;28;20025;-63
2022/01/08 00:12:41;;;;;;;8.65;2.50;;;;;;;18.26;43.99;100940.50;5034921;28;20452;-63
2022/01/08 00:15:07;;;;;;;5.25;2.08;;;;;;;18.22;44.25;100947.81;5035375;28;20029;-63
2022/01/08 00:17:33;;;;;;;5.05;2.10;;;;;;;18.20;44.01;100955.03;5034512;28;20096;-64
2022/01/08 00:19:58;;;;;;;7.80;2.55;;;;;;;18.18;43.93;100950.81;5035470;28;20029;-63
2022/01/08 00:22:24;;;;;;;7.67;2.60;;;;;;;18.15;44.43;100957.19;5035131;28;20067;-64
2022/01/08 00:24:52;;;;;;;6.90;2.45;;;;;;;18.12;44.44;100966.19;5034075;28;20838;-63
2022/01/08 00:27:22;;;;;;;8.52;2.15;;;;;;;18.10;44.00;100964.63;5034893;28;20060;-63
2022/01/08 00:29:47;;;;;;;5.38;2.10;;;;;;;18.06;44.38;100952.66;5034802;28;20106;-63
2022/01/08 00:32:14;;;;;;;6.75;2.50;;;;;;;18.04;44.13;100954.56;5033608;28;20419;-64
2022/01/08 00:34:40;;;;;;;5.95;2.70;;;;;;;18.02;44.41;100959.94;5034638;28;20094;-63
2022/01/08 00:37:06;;;;;;;7.28;2.50;;;;;;;18.00;44.15;100961.03;5034847;28;20134;-64
2022/01/08 00:39:32;;;;;;;7.15;2.53;;;;;;;17.95;44.25;100959.59;5033600;28;20029;-64
2022/01/08 00:42:00;;;;;;;6.07;2.40;;;;;;;17.95;44.11;100961.41;5034991;28;20064;-63
2022/01/08 00:44:25;;;;;;;6.38;2.50;;;;;;;17.92;44.35;100975.66;5034912;28;20018;-64
2022/01/08 00:46:51;;;;;;;6.78;2.40;;;;;;;17.90;44.22;100971.47;5033857;28;20025;-64
2022/01/08 00:49:16;;;;;;;6.10;2.50;;;;;;;17.88;44.20;100982.16;5034720;28;20555;-63
2022/01/08 00:51:41;;;;;;;7.55;2.30;;;;;;;17.85;44.71;100984.13;5034392;28;20440;-64
2022/01/08 00:54:07;;;;;;;6.03;2.20;;;;;;;17.83;44.48;100988.69;5033837;28;20030;-63
2022/01/08 00:56:32;;;;;;;7.97;2.58;;;;;;;17.80;44.53;100987.16;5034063;28;20381;-64
2022/01/08 00:58:57;;;;;;;5.45;2.05;;;;;;;17.79;44.53;100984.63;5033760;28;20034;-63
2022/01/08 01:01:22;;;;;;;6.90;3.40;;;;;;;17.75;44.55;100978.72;5034544;28;20524;-64
2022/01/08 01:03:48;;;;;;;7.80;2.85;;;;;;;17.74;44.50;100985.81;5034104;28;20028;-63
2022/01/08 01:06:16;;;;;;;7.27;2.47;;;;;;;17.73;44.73;100980.66;5033665;28;20058;-64
2022/01/08 01:08:41;;;;;;;7.60;2.20;;;;;;;17.71;44.61;100986.06;5033897;28;20796;-63
2022/01/08 01:11:07;;;;;;;7.75;2.20;;;;;;;17.68;44.49;100967.84;5034401;28;20017;-64
2022/01/08 01:13:32;;;;;;;8.43;2.80;;;;;;;17.68;44.68;100978.38;5033202;28;20037;-64
2022/01/08 01:15:58;;;;;;;7.35;2.47;;;;;;;17.65;44.58;100964.59;5033963;28;20032;-63
2022/01/08 01:18:23;;;;;;;5.22;2.25;;;;;;;17.64;44.36;100973.47;5034116;28;20087;-63
2022/01/08 01:20:50;;;;;;;6.18;2.30;;;;;;;17.63;44.51;100975.25;5033036;28;20510;-63
2022/01/08 01:23:20;;;;;;;6.55;2.65;;;;;;;17.62;44.53;100970.09;5033955;28;20044;-64
2022/01/08 01:25:50;;;;;;;9.30;2.67;;;;;;;17.61;44.37;100973.69;5033901;28;20033;-64
2022/01/08 01:41:39;;;;;;;7.30;2.42;;;;;;;17.75;43.75;100994.56;5032992;28;20040;-64
2022/01/08 01:49:04;;;;;;;5.43;2.47;;;;;;;17.79;43.41;100993.38;5032801;28;20310;-64
2022/01/08 01:51:29;;;;;;;7.93;3.35;;;;;;;17.81;43.33;100994.06;5033521;28;20025;-63
2022/01/08 01:53:54;;;;;;;7.05;2.33;;;;;;;17.84;43.21;100987.75;5033591;28;20155;-63
2022/01/08 01:56:23;;;;;;;7.60;2.63;;;;;;;17.83;43.16;100988.69;5032635;28;20485;-63
2022/01/08 01:58:49;;;;;;;5.78;2.05;;;;;;;17.84;43.09;100979.84;5033109;28;20555;-64
2022/01/08 02:01:15;;;;;;;6.28;2.50;;;;;;;17.84;43.05;100990.38;5033487;28;20033;-63
2022/01/08 02:03:41;;;;;;;6.43;2.10;;;;;;;17.83;43.05;100984.28;5032539;28;20137;-64
2022/01/08 02:06:07;;;;;;;7.35;2.20;;;;;;;17.85;43.33;100984.13;5033439;28;20120;-62
2022/01/08 02:08:33;;;;;;;8.02;2.30;;;;;;;17.84;42.85;100985.94;5032781;28;20473;-64
2022/01/08 02:10:59;;;;;;;5.00;2.25;;;;;;;17.83;42.95;100986.06;5032408;28;20036;-61
2022/01/08 02:13:26;;;;;;;5.63;2.00;;;;;;;17.83;42.73;100986.06;5033208;28;20037;-64
2022/01/08 02:15:53;;;;;;;6.10;2.20;;;;;;;17.82;43.00;100987.03;5032799;28;20474;-63
2022/01/08 02:18:19;;;;;;;5.13;2.33;;;;;;;17.81;43.01;100987.97;5032436;28;20033;-64
2022/01/08 02:20:45;;;;;;;6.55;2.50;;;;;;;17.81;42.73;100987.97;5032892;28;20021;-63
2022/01/08 02:23:10;;;;;;;6.25;2.40;;;;;;;17.81;43.06;100995.88;5033315;28;20556;-63
2022/01/08 02:25:35;;;;;;;7.50;2.00;;;;;;;17.80;42.93;100996.84;5032128;28;20029;-63
2022/01/08 02:28:04;;;;;;;5.68;2.17;;;;;;;17.80;42.78;100996.84;5032585;28;20370;-63
2022/01/08 02:30:30;;;;;;;7.35;2.20;;;;;;;17.81;43.16;101003.78;5032103;28;20119;-64
2022/01/08 02:32:56;;;;;;;5.20;2.20;;;;;;;17.82;42.94;101002.84;5032872;28;20108;-64
2022/01/08 02:35:22;;;;;;;4.60;2.40;;;;;;;17.79;42.62;100993.38;5032914;28;20084;-64
2022/01/08 02:37:48;;;;;;;5.70;2.30;;;;;;;17.83;42.57;101004.50;5031917;28;20022;-64
2022/01/08 02:40:14;;;;;;;5.15;2.22;;;;;;;17.83;42.53;101002.72;5032797;28;20088;-64
2022/01/08 02:42:49;;;;;;;5.68;2.35;;;;;;;17.83;42.33;101008.00;5032533;28;20458;-64
2022/01/08 02:45:16;;;;;;;6.13;2.65;;;;;;;17.84;42.39;101003.56;5032103;28;20038;-63
2022/01/08 02:47:41;;;;;;;4.93;2.28;;;;;;;17.83;42.46;101007.13;5032389;28;20529;-64
2022/01/08 02:50:07;;;;;;;6.45;2.50;;;;;;;17.83;42.43;101009.78;5032822;28;20124;-64
2022/01/08 02:52:32;;;;;;;6.57;2.50;;;;;;;17.84;42.46;101011.47;5031542;28;20037;-63
2022/01/08 02:54:57;;;;;;;6.20;2.60;;;;;;;17.82;42.71;101008.94;5032680;28;20103;-63
2022/01/08 02:57:22;;;;;;;5.77;2.43;;;;;;;17.83;42.50;101009.78;5036681;28;20283;-63
2022/01/08 02:59:48;;;;;;;7.03;2.73;;;;;;;17.84;42.74;101008.84;5035829;28;20289;-63
2022/01/08 03:02:13;;;;;;;7.78;2.95;;;;;;;17.86;42.98;101009.53;5036799;28;20275;-63
2022/01/08 03:04:42;;;;;;;7.10;2.75;;;;;;;17.86;42.66;101006.91;5036338;28;20374;-63
2022/01/08 03:07:07;;;;;;;7.32;2.33;;;;;;;17.87;42.28;101011.22;5035489;28;20034;-63
2022/01/08 03:09:37;;;;;;;5.28;2.58;;;;;;;17.88;42.60;101015.56;5036137;28;20041;-63
2022/01/08 03:12:03;;;;;;;5.30;2.35;;;;;;;17.88;42.25;101011.16;5036420;28;20530;-63
2022/01/08 03:14:28;;;;;;;6.07;2.42;;;;;;;17.88;42.15;101008.50;5035864;28;20041;-63
2022/01/08 03:16:53;;;;;;;9.50;2.65;;;;;;;17.89;42.14;101017.25;5036064;28;20053;-63
2022/01/08 03:19:19;;;;;;;6.78;2.80;;;;;;;17.89;42.50;101011.97;5036301;28;20030;-63
2022/01/08 03:21:51;;;;;;;9.30;2.72;;;;;;;17.88;42.43;101007.66;5035237;28;20037;-63
2022/01/08 03:24:25;;;;;;;6.32;2.72;;;;;;;17.88;42.19;101005.00;5036226;28;20546;-63
2022/01/08 03:26:50;;;;;;;7.72;2.65;;;;;;;17.88;42.81;101012.91;5035303;28;20045;-63
2022/01/08 03:29:15;;;;;;;9.63;3.10;;;;;;;17.90;42.47;101016.31;5036278;28;20039;-62
2022/01/08 03:31:41;;;;;;;6.82;2.80;;;;;;;17.90;42.41;101014.50;5035899;28;20022;-63
2022/01/08 03:34:06;;;;;;;7.43;2.80;;;;;;;17.90;42.56;101009.22;5035212;28;20068;-62
2022/01/08 03:36:32;;;;;;;6.93;2.50;;;;;;;17.92;42.16;101022.28;5035739;28;20642;-63
2022/01/08 03:39:01;;;;;;;5.80;2.25;;;;;;;17.92;42.38;101012.56;5035366;28;20025;-62
2022/01/08 03:41:26;;;;;;;8.55;3.10;;;;;;;17.91;42.35;101007.41;5034773;28;20059;-63
2022/01/08 03:43:51;;;;;;;6.53;2.47;;;;;;;17.92;42.06;101017.00;5035209;28;20069;-63
2022/01/08 03:46:21;;;;;;;5.80;2.67;;;;;;;17.92;42.17;101014.38;5035270;28;20021;-63
2022/01/08 03:49:10;;;;;;;5.85;2.63;;;;;;;17.91;41.96;101005.63;5034235;28;20298;-64
2022/01/08 03:51:33;;;;;;;8.13;2.70;;;;;;;17.91;42.52;101010.06;5034679;28;20041;-63
2022/01/08 03:53:59;;;;;;;9.27;2.65;;;;;;;17.92;42.62;100998.56;5035263;28;20025;-63
2022/01/08 03:56:26;;;;;;;7.57;3.00;;;;;;;17.92;42.52;101002.03;5034192;28;20039;-63
2022/01/08 03:58:51;;;;;;;6.57;2.55;;;;;;;17.93;42.58;101008.97;5034898;28;20104;-63
2022/01/08 04:01:17;;;;;;;6.07;2.58;;;;;;;17.94;42.36;101010.69;5035123;28;20129;-63
2022/01/08 04:03:42;;;;;;;9.15;2.72;;;;;;;17.94;42.43;101013.31;5033861;28;20452;-63
2022/01/08 04:06:08;;;;;;;6.47;2.45;;;;;;;17.94;41.89;101026.50;5034958;28;20041;-63
2022/01/08 04:08:33;;;;;;;7.38;2.28;;;;;;;17.95;42.14;101025.53;5033585;28;20017;-63
2022/01/08 04:10:58;;;;;;;6.53;2.22;;;;;;;17.95;42.17;101035.25;5034230;28;20033;-63
2022/01/08 04:13:28;;;;;;;8.60;2.65;;;;;;;17.94;41.53;101029.13;5034665;28;20044;-63
2022/01/08 04:16:01;;;;;;;9.60;2.60;;;;;;;17.93;41.68;101024.81;5033676;28;20030;-64
2022/01/08 04:18:26;;;;;;;6.38;2.53;;;;;;;17.92;41.68;101027.56;5034597;28;20469;-63
2022/01/08 04:23:29;;;;;;;6.75;2.40;;;;;;;17.91;42.06;101032.00;5033881;28;20037;-63
2022/01/08 04:25:54;;;;;;;8.23;2.80;;;;;;;17.93;42.20;101023.97;5034656;28;20124;-64
2022/01/08 04:28:20;;;;;;;5.30;2.23;;;;;;;17.93;42.56;101027.44;5034353;28;20409;-64
2022/01/08 04:30:45;;;;;;;7.25;2.80;;;;;;;17.94;42.42;101034.41;5033411;28;20365;-64
2022/01/08 04:33:14;;;;;;;5.90;2.40;;;;;;;17.95;42.28;101043.97;5034445;28;20029;-64
2022/01/08 04:35:40;;;;;;;6.88;2.72;;;;;;;17.94;42.31;101047.59;5033995;28;20488;-62
2022/01/08 04:38:05;;;;;;;7.90;2.50;;;;;;;17.95;42.21;101048.41;5033876;28;20035;-64
2022/01/08 04:40:32;;;;;;;7.20;2.60;;;;;;;17.95;41.97;101048.41;5034052;28;20033;-63
2022/01/08 04:42:59;;;;;;;6.47;2.65;;;;;;;17.94;42.08;101044.94;5034323;28;20029;-64
2022/01/08 04:45:28;;;;;;;8.43;2.60;;;;;;;17.95;41.75;101056.34;5033243;28;20458;-63
2022/01/08 04:47:53;;;;;;;6.18;2.35;;;;;;;17.94;41.91;101046.72;5034075;28;20097;-63
2022/01/08 04:50:19;;;;;;;5.65;2.63;;;;;;;17.93;42.13;101047.72;5034285;28;20079;-63
2022/01/08 04:52:44;;;;;;;5.68;2.60;;;;;;;17.96;42.02;101055.38;5033238;28;20064;-64
2022/01/08 04:55:09;;;;;;;8.43;2.58;;;;;;;17.96;42.10;101060.66;5034092;28;20393;-64
2022/01/08 04:57:35;;;;;;;6.85;2.50;;;;;;;17.96;41.96;101058.03;5033664;28;20479;-63
2022/01/08 05:00:04;;;;;;;6.07;2.20;;;;;;;17.97;42.06;101069.41;5033108;28;20032;-64
2022/01/08 05:02:29;;;;;;;6.47;2.10;;;;;;;17.97;42.21;101062.31;5033948;28;20277;-63
2022/01/08 05:04:57;;;;;;;8.35;2.00;;;;;;;17.96;42.03;101060.66;5034027;28;20041;-63
2022/01/08 05:07:22;;;;;;;8.20;2.42;;;;;;;17.95;42.03;101065.06;5032845;28;20370;-63
2022/01/08 05:09:48;;;;;;;9.07;2.50;;;;;;;17.95;41.91;101072.16;5033684;28;20041;-62
2022/01/08 05:12:16;;;;;;;7.30;2.33;;;;;;;17.94;42.04;101073.97;5032988;28;20152;-63
2022/01/08 05:14:44;;;;;;;7.25;2.10;;;;;;;17.96;42.37;101076.47;5032926;28;20275;-62
2022/01/08 05:17:15;;;;;;;6.38;2.40;;;;;;;17.97;42.18;101080.78;5033894;28;20036;-63
2022/01/08 05:19:50;;;;;;;8.70;2.50;;;;;;;17.98;41.93;101082.47;5032426;28;20022;-63
2022/01/08 05:22:26;;;;;;;9.15;2.40;;;;;;;17.99;41.99;101084.16;5033509;28;20477;-63
2022/01/08 05:24:52;;;;;;;7.25;2.10;;;;;;;17.97;42.08;101075.50;5033085;28;20465;-63
2022/01/08 05:27:17;;;;;;;8.45;2.30;;;;;;;17.98;41.73;101071.91;5032351;28;20124;-63
2022/01/08 05:29:47;;;;;;;6.80;2.13;;;;;;;17.97;41.93;101072.88;5032992;28;20075;-62
2022/01/08 05:32:16;;;;;;;8.05;2.05;;;;;;;17.96;41.99;101071.22;5033454;28;20060;-64
2022/01/08 05:34:46;;;;;;;5.50;1.85;;;;;;;17.97;41.67;101074.69;5032080;28;20481;-64
2022/01/08 05:37:13;;;;;;;6.93;2.33;;;;;;;17.96;42.03;101079.13;5033124;28;20068;-64
2022/01/08 05:39:38;;;;;;;7.80;2.20;;;;;;;17.98;42.50;101073.72;5032826;28;20038;-63
2022/01/08 05:42:04;;;;;;;7.13;2.10;;;;;;;17.97;42.42;101067.59;5033252;28;20511;-64
2022/01/08 05:44:29;;;;;;;5.45;1.80;;;;;;;17.99;42.35;101057.78;5033576;28;20049;-63
2022/01/08 05:46:55;;;;;;;5.75;1.90;;;;;;;17.99;42.06;101059.56;5033735;28;20528;-64
2022/01/08 05:49:20;;;;;;;6.43;2.05;;;;;;;18.00;42.23;101070.00;5033012;28;20060;-63
2022/01/08 05:51:45;;;;;;;5.63;1.90;;;;;;;17.99;42.02;101076.25;5033267;28;20021;-63
2022/01/08 05:54:10;;;;;;;5.57;1.85;;;;;;;18.00;41.91;101082.34;5033368;28;20314;-63
2022/01/08 05:56:36;;;;;;;7.80;2.47;;;;;;;17.97;41.68;101078.13;5032558;28;20087;-63
2022/01/08 05:59:01;;;;;;;7.90;2.30;;;;;;;17.99;41.96;101081.53;5033496;28;20751;-64
2022/01/08 06:01:27;;;;;;;6.53;1.60;;;;;;;17.99;42.46;101084.16;5032510;28;20025;-63
2022/01/08 06:03:53;;;;;;;7.68;1.90;;;;;;;17.99;42.51;101096.47;5033214;28;20037;-63
2022/01/08 06:06:18;;;;;;;7.72;2.10;;;;;;;18.00;42.21;101106.09;5033423;28;20036;-63
2022/01/08 06:08:43;;;;;;;6.47;1.70;;;;;;;18.01;42.78;101100.69;5032171;28;20076;-63
2022/01/08 06:11:08;;;;;;;5.78;1.80;;;;;;;18.02;43.32;101105.00;5033128;28;20274;-63
2022/01/08 06:13:36;;;;;;;7.78;2.08;;;;;;;18.04;43.85;101102.25;5032864;28;20060;-64
2022/01/08 06:16:02;;;;;;;6.03;1.80;;;;;;;18.06;43.97;101101.16;5032406;28;20171;-64
2022/01/08 06:18:27;;;;;;;7.40;1.98;;;;;;;18.09;43.87;101102.75;5033240;28;20569;-64
2022/01/08 06:20:55;;;;;;;6.05;1.80;;;;;;;18.10;43.78;101115.81;5032854;28;20041;-64
2022/01/08 06:23:21;;;;;;;5.13;1.85;;;;;;;18.11;44.09;101112.19;5032195;28;20482;-64
2022/01/08 06:25:46;;;;;;;7.38;1.75;;;;;;;18.12;43.70;101116.53;5032858;28;20029;-64
2022/01/08 06:28:11;;;;;;;8.48;2.15;;;;;;;18.15;43.74;101106.69;5032704;28;20053;-64
2022/01/08 06:30:40;;;;;;;5.65;1.48;;;;;;;18.16;43.70;101108.38;5031509;28;20358;-64
2022/01/08 06:33:05;;;;;;;6.40;1.63;;;;;;;18.16;44.07;101100.47;5032751;28;20464;-64
2022/01/08 06:35:30;;;;;;;5.93;1.90;;;;;;;18.18;44.06;101102.00;5032599;28;20104;-64
2022/01/08 06:37:56;;;;;;;6.70;1.60;;;;;;;18.20;44.34;101099.25;5032064;28;20638;-64
2022/01/08 06:40:21;;;;;;;8.25;1.90;;;;;;;18.21;44.41;101093.03;5032927;28;20278;-64
2022/01/08 06:42:46;;;;;;;5.63;1.73;;;;;;;18.23;44.43;101081.41;5032711;28;20021;-65
2022/01/08 06:45:14;;;;;;;6.45;1.55;;;;;;;18.24;44.35;101074.31;5032116;28;20389;-64
2022/01/08 06:47:42;;;;;;;6.40;1.60;;;;;;;18.26;44.47;101082.94;5032306;28;20513;-64
2022/01/08 06:50:07;;;;;;;6.85;1.63;;;;;;;18.27;44.46;101084.66;5032688;28;20096;-64
2022/01/08 06:52:33;;;;;;;6.53;2.05;;;;;;;18.27;44.17;101072.28;5031673;28;20175;-64
2022/01/08 06:54:59;;;;;;;4.50;1.50;;;;;;;18.28;44.60;101068.69;5032754;28;20022;-64
2022/01/08 06:57:24;;;;;;;6.10;1.70;;;;;;;18.28;44.22;101071.34;5032983;28;20105;-64
2022/01/08 06:59:49;;;;;;;5.93;1.83;;;;;;;18.29;44.42;101075.66;5032043;28;20080;-64
2022/01/08 07:02:17;;;;;;;8.80;2.00;;;;;;;18.29;44.53;101074.81;5034572;28;20751;-64
2022/01/08 07:04:43;;;;;;;6.95;1.65;;;;;;;18.30;44.29;101072.03;5034073;28;20282;-64
2022/01/08 07:07:09;;;;;;;5.85;1.70;;;;;;;18.30;44.54;101081.78;5033603;28;20029;-64
2022/01/08 07:09:34;;;;;;;4.82;1.70;;;;;;;18.31;44.09;101073.72;5037606;28;20047;-64
2022/01/08 07:11:59;;;;;;;5.50;1.83;;;;;;;18.32;44.74;101074.56;5041125;28;20029;-64
2022/01/08 07:14:24;;;;;;;6.43;1.70;;;;;;;18.32;44.70;101079.84;5041608;28;20038;-64
2022/01/08 07:16:54;;;;;;;6.73;1.90;;;;;;;18.32;43.08;101077.19;5042082;28;20508;-64
2022/01/08 07:19:19;;;;;;;7.05;2.28;;;;;;;18.29;42.98;101075.66;5042185;28;20281;-64
2022/01/08 07:21:45;;;;;;;6.00;1.95;;;;;;;18.31;43.97;101071.09;5038167;28;20392;-64
2022/01/08 07:24:10;;;;;;;5.00;1.63;;;;;;;18.34;44.15;101080.59;5035613;28;20041;-64
2022/01/08 07:26:35;;;;;;;6.63;1.60;;;;;;;18.37;44.26;101077.66;5031912;28;20040;-63
2022/01/08 07:29:01;;;;;;;6.22;1.65;;;;;;;18.39;44.40;101078.41;5033229;28;20691;-63
2022/01/08 07:31:26;;;;;;;5.43;1.60;;;;;;;18.41;44.41;101076.47;5037187;28;20038;-63
2022/01/08 07:33:51;;;;;;;6.67;1.60;;;;;;;18.43;44.24;101082.47;5035830;28;20358;-63
2022/01/08 07:36:20;;;;;;;8.27;2.30;;;;;;;18.40;42.40;101080.06;5034071;28;20373;-62
2022/01/08 07:38:46;;;;;;;4.65;1.67;;;;;;;18.41;43.75;101079.13;5037268;28;20332;-63
2022/01/08 07:41:12;;;;;;;6.10;1.70;;;;;;;18.41;44.41;101076.47;5034581;28;20481;-60
2022/01/08 07:43:38;;;;;;;6.93;1.65;;;;;;;18.44;44.46;101078.06;5037221;28;20104;-63
2022/01/08 07:46:03;;;;;;;6.13;1.60;;;;;;;18.44;44.72;101078.06;5038970;28;20044;-63
2022/01/08 07:48:28;;;;;;;6.03;1.73;;;;;;;18.46;44.54;101076.94;5037756;28;20274;-63
2022/01/08 07:50:53;;;;;;;7.93;1.60;;;;;;;18.48;44.65;101068.91;5037349;28;20017;-61
2022/01/08 07:53:19;;;;;;;7.57;1.63;;;;;;;18.51;44.67;101076.59;5036537;28;20278;-61
2022/01/08 07:55:45;;;;;;;8.43;1.85;;;;;;;18.54;44.63;101079.00;5035310;28;20047;-62
2022/01/08 07:58:10;;;;;;;7.55;1.60;;;;;;;18.57;44.91;101072.63;5035820;28;20369;-63
2022/01/08 08:00:35;;;;;;;6.95;1.40;;;;;;;18.57;44.74;101059.44;5035441;28;20057;-63
2022/01/08 08:03:01;;;;;;;7.22;1.75;;;;;;;18.58;44.68;101054.03;5035153;28;20083;-63
2022/01/08 08:05:26;;;;;;;6.53;1.70;;;;;;;18.59;44.78;101058.34;5035659;28;20533;-62
2022/01/08 08:07:52;;;;;;;4.22;1.48;;;;;;;18.59;44.88;101049.59;5035507;28;20025;-62
2022/01/08 08:10:17;;;;;;;6.57;1.67;;;;;;;18.60;45.13;101053.91;5034921;28;20116;-61
2022/01/08 08:12:43;;;;;;;7.07;1.70;;;;;;;18.61;45.02;101061.72;5035647;28;20458;-61
2022/01/08 08:15:15;;;;;;;9.70;1.85;;;;;;;18.62;44.91;101046.72;5034739;28;20025;-63
2022/01/08 08:17:40;;;;;;;8.45;2.08;;;;;;;18.62;44.47;101057.28;5035100;28;20029;-64
2022/01/08 08:20:06;;;;;;;8.52;1.90;;;;;;;18.60;44.56;101044.19;5035128;28;20721;-64
2022/01/08 08:22:31;;;;;;;5.45;1.85;;;;;;;18.61;44.81;101048.53;5034314;28;20041;-64
2022/01/08 08:24:56;;;;;;;9.10;2.20;;;;;;;18.63;44.79;101043.13;5035279;28;20104;-64
2022/01/08 08:27:34;;;;;;;5.97;1.92;;;;;;;18.63;45.09;101035.19;5035116;28;20519;-68
2022/01/08 08:29:59;;;;;;;8.35;2.13;;;;;;;18.66;45.40;101034.97;5035175;28;20033;-70
2022/01/08 08:32:25;;;;;;;6.30;2.08;;;;;;;18.77;45.12;101044.63;5035011;28;20044;-65
2022/01/08 08:34:51;;;;;;;11.05;2.55;;;;;;;18.80;45.22;101037.31;5034469;28;20025;-63
2022/01/08 08:37:17;;;;;;;6.20;1.65;;;;;;;18.81;44.76;101041.63;5034119;28;20038;-64
2022/01/08 08:39:43;;;;;;;6.43;1.90;;;;;;;18.82;44.92;101045.13;5034670;28;20067;-64
2022/01/08 08:42:08;;;;;;;8.52;2.28;;;;;;;18.80;44.96;101039.97;5034699;28;20033;-64
2022/01/08 08:44:33;;;;;;;7.32;2.10;;;;;;;18.80;45.11;101039.09;5033607;28;20056;-66
2022/01/08 08:46:59;;;;;;;8.35;2.08;;;;;;;18.80;44.85;101032.03;5034693;28;20034;-66
2022/01/08 08:49:24;;;;;;;6.68;1.88;;;;;;;18.80;45.13;101031.19;5034908;28;20075;-66
2022/01/08 08:51:49;;;;;;;6.63;1.65;;;;;;;18.81;45.39;101033.69;5033717;28;20033;-65
2022/01/08 08:54:14;;;;;;;8.73;2.60;;;;;;;18.82;45.44;101035.38;5033941;28;20473;-61
2022/01/08 08:56:42;;;;;;;6.25;1.80;;;;;;;18.83;45.51;101030.94;5034035;28;20065;-61
2022/01/08 08:59:08;;;;;;;7.63;1.70;;;;;;;18.83;45.29;101033.56;5033849;28;20037;-61
2022/01/08 09:01:33;;;;;;;5.93;1.85;;;;;;;18.83;45.23;101028.28;5034121;28;20079;-61
2022/01/08 09:03:58;;;;;;;6.47;1.80;;;;;;;18.83;45.57;101028.28;5034348;28;20048;-61
2022/01/08 09:06:26;;;;;;;6.67;1.90;;;;;;;18.83;45.27;101036.22;5033726;28;20291;-62
2022/01/08 09:08:52;;;;;;;9.05;3.80;;;;;;;18.58;40.52;101026.78;5033989;28;20267;-63
2022/01/08 09:11:17;;;;;;;7.20;2.63;;;;;;;18.53;43.27;101029.78;5033596;28;20127;-62
2022/01/08 09:13:43;;;;;;;8.18;2.83;;;;;;;18.50;42.91;101032.72;5033946;28;20108;-63
2022/01/08 09:16:08;;;;;;;7.85;2.50;;;;;;;18.49;43.37;101037.13;5034012;28;20377;-63
2022/01/08 09:18:33;;;;;;;7.10;2.20;;;;;;;18.52;44.67;101027.28;5032977;28;20064;-63
2022/01/08 09:20:58;;;;;;;7.63;1.98;;;;;;;18.55;45.06;101030.53;5034184;28;20037;-63
2022/01/08 09:23:24;;;;;;;8.07;2.00;;;;;;;18.58;45.17;101019.72;5034029;28;20473;-63
2022/01/08 09:25:49;;;;;;;10.63;2.15;;;;;;;18.59;45.40;101010.81;5033055;28;20729;-63
2022/01/08 09:28:17;;;;;;;7.73;1.77;;;;;;;18.63;45.44;101011.44;5033845;28;20056;-63
2022/01/08 09:30:42;;;;;;;7.28;1.70;;;;;;;18.65;45.38;101004.22;5033595;28;20259;-63
2022/01/08 09:33:08;;;;;;;7.23;1.60;;;;;;;18.66;45.33;101001.47;5033118;28;20024;-64
2022/01/08 09:35:36;;;;;;;7.30;1.83;;;;;;;18.69;45.27;100997.72;5033572;28;20302;-63
2022/01/08 09:38:02;;;;;;;6.88;1.67;;;;;;;18.69;45.07;100989.81;5035931;28;20037;-63
2022/01/08 09:40:28;;;;;;;5.88;1.92;;;;;;;18.79;45.00;100985.47;5036379;28;20037;-62
2022/01/08 09:42:54;;;;;;;12.15;2.00;;;;;;;18.92;44.76;100987.13;5035339;28;20025;-64
2022/01/08 09:45:19;;;;;;;6.80;2.05;;;;;;;19.04;44.64;100983.47;5034174;28;20155;-63
2022/01/08 09:47:44;;;;;;;6.57;1.92;;;;;;;19.15;44.97;100980.78;5032930;28;20397;-68
2022/01/08 09:50:10;;;;;;;10.00;1.85;;;;;;;19.23;44.47;100977.47;5033681;28;20033;-65
2022/01/08 09:52:36;;;;;;;8.45;2.17;;;;;;;19.31;44.34;100967.13;5033713;28;20034;-66
2022/01/08 09:55:05;;;;;;;8.60;2.20;;;;;;;19.38;44.03;100960.34;5033139;28;20037;-64
2022/01/08 09:57:30;;;;;;;10.32;1.90;;;;;;;19.44;43.81;100964.28;5033734;28;20037;-65
2022/01/08 09:59:57;;;;;;;7.05;3.00;;;;;;;19.42;42.15;100954.78;5033629;28;20021;-63
2022/01/08 10:02:23;;;;;;;8.25;2.05;;;;;;;19.43;43.37;100957.31;5032709;28;20021;-64
2022/01/08 10:04:50;;;;;;;7.32;2.38;;;;;;;19.46;43.50;100941.19;5032527;28;20079;-61
2022/01/08 10:07:16;;;;;;;8.48;1.88;;;;;;;19.48;43.30;100931.31;5033467;28;20042;-62
2022/01/08 10:09:59;;;;;;;9.35;2.25;;;;;;;19.53;43.37;100920.34;5032893;28;20045;-65
2022/01/08 10:12:57;;;;;;;7.03;2.53;;;;;;;19.61;43.13;100911.75;5033717;28;20055;-63
2022/01/08 10:18:31;;;;;;;8.95;1.90;;;;;;;19.66;42.84;100896.34;5033522;28;20123;-62
2022/01/08 10:21:02;;;;;;;6.78;1.95;;;;;;;19.69;42.97;100882.84;5032901;28;20045;-60
2022/01/08 10:23:32;;;;;;;6.88;2.15;;;;;;;19.69;43.21;100874.91;5032806;28;20046;-62
2022/01/08 10:26:09;;;;;;;6.65;2.03;;;;;;;19.70;42.92;100864.22;5033249;28;20033;-62
2022/01/08 10:28:42;;;;;;;9.82;2.50;;;;;;;19.73;42.99;100863.13;5032656;28;20041;-62
2022/01/08 10:31:11;;;;;;;7.07;2.17;;;;;;;19.75;43.06;100858.53;5033804;28;20029;-62
2022/01/08 10:33:38;;;;;;;7.82;2.30;;;;;;;19.76;43.13;100860.22;5034028;28;20037;-65
2022/01/08 10:36:05;;;;;;;8.63;2.15;;;;;;;19.77;43.35;100861.06;5032887;28;20041;-64
2022/01/08 10:38:30;;;;;;;9.73;2.30;;;;;;;19.78;43.14;100849.53;5032739;28;20021;-64
2022/01/08 10:40:58;;;;;;;6.28;2.25;;;;;;;19.79;42.91;100844.09;5032826;28;20393;-63
2022/01/08 10:43:25;;;;;;;8.57;2.58;;;;;;;19.78;41.49;100838.94;5032225;28;20474;-65
2022/01/08 10:45:56;;;;;;;8.07;2.40;;;;;;;19.75;42.62;100832.06;5032174;28;20400;-65
2022/01/08 10:48:43;;;;;;;9.10;2.15;;;;;;;19.74;42.55;100822.47;5032989;28;20025;-65
2022/01/08 10:51:15;;;;;;;9.10;2.33;;;;;;;19.73;42.73;100818.16;5032290;28;20440;-64
2022/01/08 10:53:55;;;;;;;8.18;2.60;;;;;;;19.71;42.62;100804.22;5033501;28;20495;-64
2022/01/08 10:56:29;;;;;;;8.32;2.20;;;;;;;19.72;42.50;100803.25;5032870;28;20034;-66
2022/01/08 10:59:11;;;;;;;8.90;2.42;;;;;;;19.71;42.98;100793.66;5032188;28;20030;-64
2022/01/08 11:01:38;;;;;;;9.68;2.42;;;;;;;19.70;42.64;100800.75;5033100;28;20061;-64
2022/01/08 11:04:04;;;;;;;7.43;2.00;;;;;;;19.72;42.70;100792.69;5032786;28;20029;-64
2022/01/08 11:06:29;;;;;;;10.27;2.40;;;;;;;19.72;42.77;100777.66;5032420;28;20033;-64
2022/01/08 11:09:02;;;;;;;9.00;2.10;;;;;;;19.69;42.58;100775.31;5032497;28;20037;-64
2022/01/08 11:11:30;;;;;;;11.18;2.28;;;;;;;19.63;42.33;100767.06;5032085;28;20046;-66
2022/01/08 11:14:05;;;;;;;7.38;2.20;;;;;;;19.62;42.49;100752.19;5032813;28;20033;-66
2022/01/08 11:16:31;;;;;;;7.60;1.90;;;;;;;19.63;42.44;100753.84;5033738;28;20029;-66
2022/01/08 11:18:58;;;;;;;7.30;2.13;;;;;;;19.63;42.37;100746.75;5035922;28;20026;-63
2022/01/08 11:21:29;;;;;;;8.40;3.10;;;;;;;19.45;39.97;100736.00;5036168;28;20080;-61
2022/01/08 11:23:57;;;;;;;6.68;2.50;;;;;;;19.31;42.52;100734.59;5036409;28;20033;-64
2022/01/08 11:26:26;;;;;;;6.85;2.63;;;;;;;19.22;42.81;100716.91;5035126;28;20377;-61
2022/01/08 11:28:58;;;;;;;8.15;2.92;;;;;;;19.18;43.47;100712.84;5035840;28;20039;-63
2022/01/08 11:31:29;;;;;;;8.18;2.90;;;;;;;19.14;43.57;100698.25;5036770;28;20025;-67
2022/01/08 11:34:02;;;;;;;9.43;3.13;;;;;;;19.22;43.59;100706.34;5035519;28;20136;-63
2022/01/08 11:36:30;;;;;;;8.45;3.55;;;;;;;19.05;39.12;100699.88;5036148;28;20537;-65
2022/01/08 11:38:59;;;;;;;7.50;3.22;;;;;;;18.93;42.54;100696.53;5036106;28;20038;-65
2022/01/08 11:41:25;;;;;;;9.75;4.10;;;;;;;18.90;42.41;100693.28;5037623;28;20041;-64
2022/01/08 11:43:53;;;;;;;8.10;3.60;;;;;;;18.87;41.94;100677.72;5035793;28;20491;-65
2022/01/08 11:46:19;;;;;;;9.30;3.65;;;;;;;18.87;42.79;100681.22;5035174;28;20131;-64